Time,TemperatureF,DewpointF,PressureIn,WindDirection,WindDirectionDegrees,WindSpeedMPH,WindSpeedGustMPH,Humidity,HourlyPrecipIn,Conditions,Clouds,dailyrainin,SoftwareType,DateUTC
2013-02-01 00:00:00,27.5,3.9,29.76,WNW,294,3.6,10.3,36,0.00,,,0.75,WUHU21623XXSP,2013-02-01 05:00:00,
2013-02-01 00:01:00,27.5,3.9,29.76,WNW,294,3.6,10.3,36,0.00,,,0.75,WUHU21623XXSP,2013-02-01 05:01:00,
2013-02-01 00:06:00,27.5,3.9,29.76,WSW,247,2.8,8.3,36,0.00,,,0.00,WUHU21623XXSP,2013-02-01 05:06:00,
2013-02-01 00:11:00,27.3,3.7,29.76,WSW,247,17.7,17.7,36,0.00,,,0.00,WUHU21623XXSP,2013-02-01 05:11:00,
2013-02-01 00:16:00,27.3,3.7,29.77,NW,315,4.0,17.7,36,0.00,,,0.00,WUHU21623XXSP,2013-02-01 05:16:00,
2013-02-01 00:21:00,27.3,3.7,29.77,WSW,255,5.8,17.7,36,0.00,,,0.00,WUHU21623XXSP,2013-02-01 05:21:00,
2013-02-01 00:26:00,27.3,3.7,29.77,West,270,3.1,12.8,36,0.00,,,0.00,WUHU21623XXSP,2013-02-01 05:26:00,
2013-02-01 00:31:00,27.3,3.7,29.77,WSW,247,5.1,11.9,36,0.00,,,0.00,WUHU21623XXSP,2013-02-01 05:31:00,
2013-02-01 00:36:00,27.3,3.7,29.77,WNW,302,4.1,11.9,36,0.00,,,0.00,WUHU21623XXSP,2013-02-01 05:36:00,
2013-02-01 00:41:00,27.3,3.7,29.77,SSW,202,5.8,11.2,36,0.00,,,0.00,WUHU21623XXSP,2013-02-01 05:41:00,
2013-02-01 00:46:00,27.3,3.7,29.77,WSW,257,5.1,15.7,36,0.00,,,0.00,WUHU21623XXSP,2013-02-01 05:46:00,
2013-02-01 00:51:00,27.1,3.6,29.77,West,269,2.4,15.7,36,0.00,,,0.00,WUHU21623XXSP,2013-02-01 05:51:00,
2013-02-01 00:56:00,27.1,3.6,29.77,SW,228,8.0,13.6,36,0.00,,,0.00,WUHU21623XXSP,2013-02-01 05:56:00,
2013-02-01 01:01:00,27.1,3.6,29.78,NW,315,11.4,16.6,36,0.00,,,0.00,WUHU21623XXSP,2013-02-01 06:01:00,
2013-02-01 01:06:00,27.1,3.6,29.78,SW,225,6.0,16.6,36,0.00,,,0.00,WUHU21623XXSP,2013-02-01 06:06:00,
2013-02-01 01:13:00,27.0,3.5,29.78,West,274,3.4,15.2,36,0.00,,,0.00,WUHU21623XXSP,2013-02-01 06:13:00,
2013-02-01 01:18:00,27.0,3.5,29.80,SSE,157,5.1,8.7,36,0.00,,,0.00,WUHU21623XXSP,2013-02-01 06:18:00,
2013-02-01 01:24:00,27.0,3.5,29.78,WSW,240,4.1,8.7,36,0.00,,,0.00,WUHU21623XXSP,2013-02-01 06:24:00,
2013-02-01 01:29:00,26.8,3.3,29.80,West,277,3.0,6.7,36,0.00,,,0.00,WUHU21623XXSP,2013-02-01 06:29:00,
2013-02-01 01:34:00,26.8,3.3,29.80,WSW,247,10.3,10.3,36,0.00,,,0.00,WUHU21623XXSP,2013-02-01 06:34:00,
2013-02-01 01:39:00,26.8,3.3,29.80,WSW,246,2.7,10.3,36,0.00,,,0.00,WUHU21623XXSP,2013-02-01 06:39:00,
2013-02-01 01:45:00,26.8,3.3,29.80,West,270,8.1,9.4,36,0.00,,,0.00,WUHU21623XXSP,2013-02-01 06:45:00,
2013-02-01 01:50:00,26.8,3.3,29.80,West,261,3.2,21.7,36,0.00,,,0.00,WUHU21623XXSP,2013-02-01 06:50:00,
2013-02-01 01:55:00,26.8,3.3,29.80,West,280,2.3,21.7,36,0.00,,,0.00,WUHU21623XXSP,2013-02-01 06:55:00,
2013-02-01 02:00:00,26.8,3.3,29.80,SW,235,3.4,7.8,36,0.00,,,0.00,WUHU21623XXSP,2013-02-01 07:00:00,
2013-02-01 02:05:00,26.8,3.3,29.80,SW,228,6.4,10.1,36,0.00,,,0.00,WUHU21623XXSP,2013-02-01 07:05:00,
2013-02-01 02:10:00,26.6,3.1,29.80,WNW,292,3.6,10.5,36,0.00,,,0.00,WUHU21623XXSP,2013-02-01 07:10:00,
2013-02-01 02:15:00,26.4,2.9,29.80,West,269,3.6,11.0,36,0.00,,,0.00,WUHU21623XXSP,2013-02-01 07:15:00,
2013-02-01 02:20:00,26.4,2.9,29.80,West,268,5.7,14.3,36,0.00,,,0.00,WUHU21623XXSP,2013-02-01 07:20:00,
2013-02-01 02:25:00,26.4,2.9,29.80,West,274,1.6,14.3,36,0.00,,,0.00,WUHU21623XXSP,2013-02-01 07:25:00,
2013-02-01 02:30:00,26.4,2.9,29.80,NW,313,1.0,11.6,36,0.00,,,0.00,WUHU21623XXSP,2013-02-01 07:30:00,
2013-02-01 02:35:00,26.4,2.9,29.80,WNW,292,6.3,11.6,36,0.00,,,0.00,WUHU21623XXSP,2013-02-01 07:35:00,
2013-02-01 02:40:00,26.2,2.8,29.80,WSW,247,11.2,12.8,36,0.00,,,0.00,WUHU21623XXSP,2013-02-01 07:40:00,
2013-02-01 02:45:00,26.2,2.8,29.80,SSE,157,2.9,16.8,36,0.00,,,0.00,WUHU21623XXSP,2013-02-01 07:45:00,
2013-02-01 02:50:00,26.2,2.8,29.80,West,269,0.9,16.8,36,0.00,,,0.00,WUHU21623XXSP,2013-02-01 07:50:00,
2013-02-01 02:55:00,26.2,2.8,29.80,West,270,7.8,10.7,36,0.00,,,0.00,WUHU21623XXSP,2013-02-01 07:55:00,
2013-02-01 03:00:00,26.2,2.8,29.80,SSW,202,6.7,11.0,36,0.00,,,0.00,WUHU21623XXSP,2013-02-01 08:00:00,
2013-02-01 03:06:00,26.2,2.8,29.80,West,270,4.3,14.3,36,0.00,,,0.00,WUHU21623XXSP,2013-02-01 08:06:00,
2013-02-01 03:11:00,26.1,2.7,29.80,WSW,252,2.3,11.9,36,0.00,,,0.00,WUHU21623XXSP,2013-02-01 08:11:00,
2013-02-01 03:16:00,26.1,2.7,29.80,SW,217,0.9,9.8,36,0.00,,,0.00,WUHU21623XXSP,2013-02-01 08:16:00,
2013-02-01 03:21:00,25.9,2.5,29.80,SW,230,1.5,8.7,36,0.00,,,0.00,WUHU21623XXSP,2013-02-01 08:21:00,
2013-02-01 03:26:00,26.1,3.3,29.80,WNW,292,2.2,9.8,37,0.00,,,0.00,WUHU21623XXSP,2013-02-01 08:26:00,
2013-02-01 03:31:00,25.9,3.7,29.80,WSW,247,7.4,17.0,38,0.00,,,0.00,WUHU21623XXSP,2013-02-01 08:31:00,
2013-02-01 03:36:00,26.1,5.5,29.80,SW,223,1.7,17.0,41,0.00,,,0.00,WUHU21623XXSP,2013-02-01 08:36:00,
2013-02-01 03:41:00,25.9,5.3,29.78,SSW,199,2.1,9.8,41,0.00,,,0.00,WUHU21623XXSP,2013-02-01 08:41:00,
2013-02-01 03:46:00,25.9,6.4,29.78,West,272,1.9,6.9,43,0.00,,,0.00,WUHU21623XXSP,2013-02-01 08:46:00,
2013-02-01 03:51:00,25.9,6.9,29.78,WSW,247,4.5,6.3,44,0.00,,,0.00,WUHU21623XXSP,2013-02-01 08:51:00,
2013-02-01 03:56:00,25.7,7.2,29.78,WSW,255,4.4,9.2,45,0.00,,,0.00,WUHU21623XXSP,2013-02-01 08:56:00,
2013-02-01 04:01:00,25.9,8.4,29.80,West,268,0.8,9.2,47,0.00,,,0.00,WUHU21623XXSP,2013-02-01 09:01:00,
2013-02-01 04:06:00,25.7,8.7,29.80,SW,232,2.8,13.4,48,0.00,,,0.00,WUHU21623XXSP,2013-02-01 09:06:00,
2013-02-01 04:11:00,25.7,8.7,29.80,SW,231,0.3,13.4,48,0.00,,,0.00,WUHU21623XXSP,2013-02-01 09:11:00,
2013-02-01 04:16:00,25.7,9.2,29.80,WSW,237,1.2,6.0,49,0.00,,,0.00,WUHU21623XXSP,2013-02-01 09:16:00,
2013-02-01 04:21:00,25.5,9.0,29.80,SW,225,4.9,9.4,49,0.00,,,0.00,WUHU21623XXSP,2013-02-01 09:21:00,
2013-02-01 04:26:00,25.7,10.1,29.80,SW,225,6.0,9.4,51,0.00,,,0.00,WUHU21623XXSP,2013-02-01 09:26:00,
2013-02-01 04:31:00,25.5,9.9,29.80,West,270,0.3,8.9,51,0.00,,,0.00,WUHU21623XXSP,2013-02-01 09:31:00,
2013-02-01 04:36:00,25.5,9.9,29.80,West,270,0.2,8.3,51,0.00,,,0.00,WUHU21623XXSP,2013-02-01 09:36:00,
2013-02-01 04:41:00,25.5,10.4,29.80,WSW,241,4.3,8.3,52,0.00,,,0.00,WUHU21623XXSP,2013-02-01 09:41:00,
2013-02-01 04:46:00,25.5,10.4,29.80,WSW,249,3.4,6.7,52,0.00,,,0.00,WUHU21623XXSP,2013-02-01 09:46:00,
2013-02-01 04:51:00,25.3,10.2,29.80,SW,223,2.3,7.6,52,0.00,,,0.00,WUHU21623XXSP,2013-02-01 09:51:00,
2013-02-01 04:56:00,25.3,10.2,29.80,West,270,4.0,8.7,52,0.00,,,0.00,WUHU21623XXSP,2013-02-01 09:56:00,
2013-02-01 05:01:00,25.3,10.2,29.80,SW,229,2.4,10.7,52,0.00,,,0.00,WUHU21623XXSP,2013-02-01 10:01:00,
2013-02-01 05:06:00,25.3,10.2,29.81,SSW,209,1.7,10.7,52,0.00,,,0.00,WUHU21623XXSP,2013-02-01 10:06:00,
2013-02-01 05:11:00,25.2,10.1,29.80,West,270,1.3,7.8,52,0.00,,,0.00,WUHU21623XXSP,2013-02-01 10:11:00,
2013-02-01 05:16:00,25.3,10.2,29.81,SW,225,6.3,7.8,52,0.00,,,0.00,WUHU21623XXSP,2013-02-01 10:16:00,
2013-02-01 05:21:00,25.2,10.1,29.81,WNW,292,6.9,8.3,52,0.00,,,0.00,WUHU21623XXSP,2013-02-01 10:21:00,
2013-02-01 05:26:00,25.2,10.1,29.81,SSW,211,4.5,11.6,52,0.00,,,0.00,WUHU21623XXSP,2013-02-01 10:26:00,
2013-02-01 05:32:00,25.2,10.1,29.81,SSW,202,2.7,8.3,52,0.00,,,0.00,WUHU21623XXSP,2013-02-01 10:32:00,
2013-02-01 05:37:00,25.2,10.1,29.81,WSW,249,6.9,11.4,52,0.00,,,0.00,WUHU21623XXSP,2013-02-01 10:37:00,
2013-02-01 05:42:00,25.2,10.1,29.81,West,270,0.0,11.4,52,0.00,,,0.00,WUHU21623XXSP,2013-02-01 10:42:00,
2013-02-01 05:47:00,25.2,10.1,29.81,SSW,202,2.9,6.9,52,0.00,,,0.00,WUHU21623XXSP,2013-02-01 10:47:00,
2013-02-01 05:52:00,25.2,10.1,29.82,SW,225,4.7,8.1,52,0.00,,,0.00,WUHU21623XXSP,2013-02-01 10:52:00,
2013-02-01 05:57:00,25.2,10.1,29.82,West,268,2.8,8.1,52,0.00,,,0.00,WUHU21623XXSP,2013-02-01 10:57:00,
2013-02-01 06:02:00,25.3,10.2,29.82,WSW,247,5.1,10.5,52,0.00,,,0.00,WUHU21623XXSP,2013-02-01 11:02:00,
2013-02-01 06:07:00,25.2,10.1,29.82,SW,225,7.2,10.5,52,0.00,,,0.00,WUHU21623XXSP,2013-02-01 11:07:00,
2013-02-01 06:12:00,25.2,10.1,29.82,SW,221,3.3,8.7,52,0.00,,,0.00,WUHU21623XXSP,2013-02-01 11:12:00,
2013-02-01 06:17:00,25.3,10.2,29.82,WSW,247,2.0,8.7,52,0.00,,,0.00,WUHU21623XXSP,2013-02-01 11:17:00,
2013-02-01 06:22:00,25.3,10.2,29.83,WNW,292,3.1,6.7,52,0.00,,,0.00,WUHU21623XXSP,2013-02-01 11:22:00,
2013-02-01 06:27:00,25.3,10.6,29.83,WSW,247,6.9,12.3,53,0.00,,,0.00,WUHU21623XXSP,2013-02-01 11:27:00,
2013-02-01 06:32:00,25.3,10.2,29.83,SW,225,10.3,12.3,52,0.00,,,0.00,WUHU21623XXSP,2013-02-01 11:32:00,
2013-02-01 06:37:00,25.3,10.2,29.83,West,270,5.8,12.8,52,0.00,,,0.00,WUHU21623XXSP,2013-02-01 11:37:00,
2013-02-01 06:42:00,25.3,10.2,29.83,West,280,6.9,15.9,52,0.00,,,0.00,WUHU21623XXSP,2013-02-01 11:42:00,
2013-02-01 06:47:00,25.5,9.9,29.84,West,266,2.8,15.9,51,0.00,,,0.00,WUHU21623XXSP,2013-02-01 11:47:00,
2013-02-01 06:52:00,25.5,9.9,29.84,West,263,2.6,10.3,51,0.00,,,0.00,WUHU21623XXSP,2013-02-01 11:52:00,
2013-02-01 06:57:00,25.5,9.9,29.84,NW,319,1.0,9.8,51,0.00,,,0.00,WUHU21623XXSP,2013-02-01 11:57:00,
2013-02-01 07:02:00,25.3,9.7,29.84,SW,219,2.7,10.7,51,0.00,,,0.00,WUHU21623XXSP,2013-02-01 12:02:00,
2013-02-01 07:07:00,25.3,10.2,29.84,SW,235,3.3,13.0,52,0.00,,,0.00,WUHU21623XXSP,2013-02-01 12:07:00,
2013-02-01 07:12:00,25.3,10.2,29.84,WSW,247,2.2,13.0,52,0.00,,,0.00,WUHU21623XXSP,2013-02-01 12:12:00,
2013-02-01 07:17:00,25.5,10.4,29.84,NNW,337,1.3,8.1,52,0.00,,,0.00,WUHU21623XXSP,2013-02-01 12:17:00,
2013-02-01 07:22:00,25.3,10.2,29.85,West,270,2.0,8.1,52,0.00,,,0.00,WUHU21623XXSP,2013-02-01 12:22:00,
2013-02-01 07:27:00,25.5,10.8,29.85,SW,225,4.9,9.2,53,0.00,,,0.00,WUHU21623XXSP,2013-02-01 12:27:00,
2013-02-01 07:32:00,25.5,10.8,29.85,SW,225,8.7,9.2,53,0.00,,,0.00,WUHU21623XXSP,2013-02-01 12:32:00,
2013-02-01 07:37:00,25.5,10.8,29.85,WSW,247,4.7,8.7,53,0.00,,,0.00,WUHU21623XXSP,2013-02-01 12:37:00,
2013-02-01 07:42:00,25.5,11.2,29.86,West,270,2.8,6.9,54,0.00,,,0.00,WUHU21623XXSP,2013-02-01 12:42:00,
2013-02-01 07:48:00,25.5,11.2,29.86,WSW,238,4.6,11.6,54,0.00,,,0.00,WUHU21623XXSP,2013-02-01 12:48:00,
2013-02-01 07:53:00,25.7,11.4,29.86,West,270,1.6,11.6,54,0.00,,,0.00,WUHU21623XXSP,2013-02-01 12:53:00,
2013-02-01 07:58:00,25.7,11.4,29.86,WNW,289,2.1,6.3,54,0.00,,,0.00,WUHU21623XXSP,2013-02-01 12:58:00,
2013-02-01 08:03:00,25.9,12.0,29.86,North,0,0.0,6.3,55,0.00,,,0.00,WUHU21623XXSP,2013-02-01 13:03:00,
2013-02-01 08:08:00,25.9,12.0,29.86,SE,135,0.0,7.6,55,0.00,,,0.00,WUHU21623XXSP,2013-02-01 13:08:00,
2013-02-01 08:20:00,25.9,12.0,29.85,West,270,2.2,2.9,55,0.00,,,0.00,WUHU21623XXSP,2013-02-01 13:20:00,
2013-02-01 08:25:00,26.1,12.2,29.85,NW,315,0.1,2.9,55,0.00,,,0.00,WUHU21623XXSP,2013-02-01 13:25:00,
2013-02-01 08:30:00,26.1,11.8,29.84,WNW,292,2.0,4.5,54,0.00,,,0.00,WUHU21623XXSP,2013-02-01 13:30:00,
2013-02-01 08:35:00,26.1,11.8,29.84,North,354,1.7,6.3,54,0.00,,,0.00,WUHU21623XXSP,2013-02-01 13:35:00,
2013-02-01 08:40:00,26.2,11.9,29.84,SW,232,1.8,6.9,54,0.00,,,0.00,WUHU21623XXSP,2013-02-01 13:40:00,
2013-02-01 08:45:00,26.2,11.4,29.85,NNW,337,4.0,6.9,53,0.00,,,0.00,WUHU21623XXSP,2013-02-01 13:45:00,
2013-02-01 08:50:00,26.2,11.0,29.86,WNW,294,1.5,9.6,52,0.00,,,0.00,WUHU21623XXSP,2013-02-01 13:50:00,
2013-02-01 08:55:00,26.6,10.9,29.86,NW,312,1.8,9.6,51,0.00,,,0.00,WUHU21623XXSP,2013-02-01 13:55:00,
2013-02-01 09:00:00,26.8,10.7,29.86,WNW,292,1.6,8.5,50,0.00,,,0.00,WUHU21623XXSP,2013-02-01 14:00:00,
2013-02-01 09:05:00,26.6,9.1,29.86,NE,45,0.0,7.8,47,0.00,,,0.00,WUHU21623XXSP,2013-02-01 14:05:00,
2013-02-01 09:10:00,26.8,8.7,29.86,West,281,3.0,7.8,46,0.00,,,0.00,WUHU21623XXSP,2013-02-01 14:10:00,
2013-02-01 09:15:00,26.8,6.7,29.86,NW,315,1.6,6.5,42,0.00,,,0.00,WUHU21623XXSP,2013-02-01 14:15:00,
2013-02-01 09:20:00,26.8,5.0,29.86,West,270,3.1,7.4,39,0.00,,,0.00,WUHU21623XXSP,2013-02-01 14:20:00,
2013-02-01 09:25:00,27.0,4.6,29.86,WNW,299,1.4,7.4,38,0.00,,,0.00,WUHU21623XXSP,2013-02-01 14:25:00,
2013-02-01 09:30:00,27.0,4.6,29.86,WNW,303,1.7,4.5,38,0.00,,,0.00,WUHU21623XXSP,2013-02-01 14:30:00,
2013-02-01 09:35:00,27.1,4.2,29.86,ENE,67,0.1,4.5,37,0.00,,,0.00,WUHU21623XXSP,2013-02-01 14:35:00,
2013-02-01 09:40:00,27.3,4.3,29.86,North,0,11.9,11.9,37,0.00,,,0.00,WUHU21623XXSP,2013-02-01 14:40:00,
2013-02-01 09:45:00,27.3,3.7,29.86,WSW,257,2.6,11.9,36,0.00,,,0.00,WUHU21623XXSP,2013-02-01 14:45:00,
2013-02-01 09:50:00,27.5,3.9,29.88,NW,311,1.3,8.5,36,0.00,,,0.00,WUHU21623XXSP,2013-02-01 14:50:00,
2013-02-01 09:55:00,27.5,3.9,29.88,NW,315,4.0,6.9,36,0.00,,,0.00,WUHU21623XXSP,2013-02-01 14:55:00,
2013-02-01 10:00:00,27.5,3.9,29.88,NNW,337,4.7,8.1,36,0.00,,,0.00,WUHU21623XXSP,2013-02-01 15:00:00,
2013-02-01 10:05:00,27.5,3.9,29.88,WNW,286,2.9,8.1,36,0.00,,,0.00,WUHU21623XXSP,2013-02-01 15:05:00,
2013-02-01 10:10:00,27.5,3.9,29.88,West,281,1.6,6.5,36,0.00,,,0.00,WUHU21623XXSP,2013-02-01 15:10:00,
2013-02-01 10:15:00,27.9,4.3,29.88,WNW,291,1.7,8.3,36,0.00,,,0.00,WUHU21623XXSP,2013-02-01 15:15:00,
2013-02-01 10:20:00,28.0,4.4,29.88,SSE,157,2.5,8.3,36,0.00,,,0.00,WUHU21623XXSP,2013-02-01 15:20:00,
2013-02-01 10:25:00,28.2,4.5,29.88,WSW,241,2.7,6.9,36,0.00,,,0.00,WUHU21623XXSP,2013-02-01 15:25:00,
2013-02-01 10:30:00,28.4,4.7,29.89,West,270,3.6,7.2,36,0.00,,,0.00,WUHU21623XXSP,2013-02-01 15:30:00,
2013-02-01 10:35:00,28.4,4.7,29.88,East,90,3.4,7.2,36,0.00,,,0.00,WUHU21623XXSP,2013-02-01 15:35:00,
2013-02-01 10:40:00,28.6,4.9,29.88,WNW,299,1.9,6.7,36,0.00,,,0.00,WUHU21623XXSP,2013-02-01 15:40:00,
2013-02-01 10:45:00,28.6,4.9,29.88,West,270,4.9,9.2,36,0.00,,,0.00,WUHU21623XXSP,2013-02-01 15:45:00,
2013-02-01 10:50:00,28.8,5.1,29.88,West,270,6.3,9.2,36,0.00,,,0.00,WUHU21623XXSP,2013-02-01 15:50:00,
2013-02-01 10:55:00,28.9,5.2,29.88,NW,319,1.0,9.2,36,0.00,,,0.00,WUHU21623XXSP,2013-02-01 15:55:00,
2013-02-01 11:00:00,29.1,5.3,29.88,WSW,248,1.2,7.2,36,0.00,,,0.00,WUHU21623XXSP,2013-02-01 16:00:00,
2013-02-01 11:13:00,30.0,6.1,29.88,NW,306,3.4,10.7,36,0.00,,,0.00,WUHU21623XXSP,2013-02-01 16:13:00,
2013-02-01 11:18:00,29.8,6.0,29.88,WNW,303,0.8,10.7,36,0.00,,,0.00,WUHU21623XXSP,2013-02-01 16:18:00,
2013-02-01 11:23:00,29.8,6.0,29.88,WNW,292,4.9,6.0,36,0.00,,,0.00,WUHU21623XXSP,2013-02-01 16:23:00,
2013-02-01 11:28:00,29.7,5.9,29.88,South,180,3.8,5.1,36,0.00,,,0.00,WUHU21623XXSP,2013-02-01 16:28:00,
2013-02-01 11:33:00,29.3,5.5,29.86,NW,315,5.1,7.8,36,0.00,,,0.00,WUHU21623XXSP,2013-02-01 16:33:00,
2013-02-01 11:38:00,29.1,5.3,29.86,NW,321,0.8,11.0,36,0.00,,,0.00,WUHU21623XXSP,2013-02-01 16:38:00,
2013-02-01 11:43:00,29.1,5.3,29.86,NNW,337,3.1,11.0,36,0.00,,,0.00,WUHU21623XXSP,2013-02-01 16:43:00,
2013-02-01 11:48:00,29.1,5.3,29.86,NW,319,2.9,10.5,36,0.00,,,0.00,WUHU21623XXSP,2013-02-01 16:48:00,
2013-02-01 11:53:00,29.1,5.3,29.85,SW,225,4.1,9.2,36,0.00,,,0.00,WUHU21623XXSP,2013-02-01 16:53:00,
2013-02-01 11:58:00,28.9,5.2,29.85,SW,225,2.0,8.7,36,0.00,,,0.00,WUHU21623XXSP,2013-02-01 16:58:00,
2013-02-01 12:03:00,29.1,5.3,29.85,WSW,247,5.4,8.5,36,0.00,,,0.00,WUHU21623XXSP,2013-02-01 17:03:00,
2013-02-01 12:08:00,29.1,5.3,29.85,WSW,256,3.8,8.5,36,0.00,,,0.00,WUHU21623XXSP,2013-02-01 17:08:00,
2013-02-01 12:13:00,29.1,5.3,29.85,NW,315,3.8,10.7,36,0.00,,,0.00,WUHU21623XXSP,2013-02-01 17:13:00,
2013-02-01 12:18:00,29.1,5.3,29.85,NW,315,2.7,10.7,36,0.00,,,0.00,WUHU21623XXSP,2013-02-01 17:18:00,
2013-02-01 12:23:00,29.3,5.5,29.85,WNW,287,3.5,8.3,36,0.00,,,0.00,WUHU21623XXSP,2013-02-01 17:23:00,
2013-02-01 12:28:00,29.5,5.7,29.85,WSW,247,3.6,8.3,36,0.00,,,0.00,WUHU21623XXSP,2013-02-01 17:28:00,
2013-02-01 12:33:00,29.7,5.9,29.86,NNW,341,1.3,8.3,36,0.00,,,0.00,WUHU21623XXSP,2013-02-01 17:33:00,
2013-02-01 12:38:00,29.7,5.9,29.86,SW,214,0.4,6.3,36,0.00,,,0.00,WUHU21623XXSP,2013-02-01 17:38:00,
2013-02-01 12:43:00,29.8,6.0,29.86,West,277,3.0,6.3,36,0.00,,,0.00,WUHU21623XXSP,2013-02-01 17:43:00,
2013-02-01 12:48:00,30.0,6.1,29.86,NNW,330,1.6,7.6,36,0.00,,,0.00,WUHU21623XXSP,2013-02-01 17:48:00,
2013-02-01 12:53:00,30.0,6.1,29.86,NE,45,2.0,7.6,36,0.00,,,0.00,WUHU21623XXSP,2013-02-01 17:53:00,
2013-02-01 12:58:00,30.0,6.1,29.86,NW,325,1.9,8.1,36,0.00,,,0.00,WUHU21623XXSP,2013-02-01 17:58:00,
2013-02-01 13:03:00,30.2,6.3,29.86,WNW,288,1.7,8.9,36,0.00,,,0.00,WUHU21623XXSP,2013-02-01 18:03:00,
2013-02-01 13:08:00,30.0,6.1,29.88,WNW,288,3.3,11.4,36,0.00,,,0.00,WUHU21623XXSP,2013-02-01 18:08:00,
2013-02-01 13:13:00,30.0,6.1,29.86,NW,315,3.1,11.4,36,0.00,,,0.00,WUHU21623XXSP,2013-02-01 18:13:00,
2013-02-01 13:18:00,30.0,6.1,29.88,NW,314,2.6,7.8,36,0.00,,,0.00,WUHU21623XXSP,2013-02-01 18:18:00,
2013-02-01 13:23:00,30.6,6.7,29.88,WSW,247,4.9,7.8,36,0.00,,,0.00,WUHU21623XXSP,2013-02-01 18:23:00,
2013-02-01 13:28:00,31.3,7.3,29.88,NNW,335,3.1,11.2,36,0.00,,,0.00,WUHU21623XXSP,2013-02-01 18:28:00,
2013-02-01 13:34:00,31.3,7.3,29.88,NNW,332,4.1,6.9,36,0.00,,,0.00,WUHU21623XXSP,2013-02-01 18:34:00,
2013-02-01 13:39:00,31.1,7.1,29.88,WNW,298,3.6,6.9,36,0.00,,,0.00,WUHU21623XXSP,2013-02-01 18:39:00,
2013-02-01 13:44:00,30.9,7.0,29.88,WNW,292,6.3,9.4,36,0.00,,,0.00,WUHU21623XXSP,2013-02-01 18:44:00,
2013-02-01 13:49:00,30.9,7.0,29.88,West,270,4.9,9.6,36,0.00,,,0.00,WUHU21623XXSP,2013-02-01 18:49:00,
2013-02-01 13:54:00,30.7,6.8,29.88,WNW,298,4.4,9.6,36,0.00,,,0.00,WUHU21623XXSP,2013-02-01 18:54:00,
2013-02-01 13:59:00,31.1,7.1,29.88,NNW,337,2.0,8.1,36,0.00,,,0.00,WUHU21623XXSP,2013-02-01 18:59:00,
2013-02-01 14:04:00,31.3,7.3,29.88,NW,321,3.2,10.3,36,0.00,,,0.00,WUHU21623XXSP,2013-02-01 19:04:00,
2013-02-01 14:09:00,31.6,7.6,29.88,West,274,2.6,10.3,36,0.00,,,0.00,WUHU21623XXSP,2013-02-01 19:09:00,
2013-02-01 14:14:00,31.3,7.3,29.89,West,264,4.9,11.0,36,0.00,,,0.00,WUHU21623XXSP,2013-02-01 19:14:00,
2013-02-01 14:19:00,30.7,6.8,29.89,NW,315,11.6,13.4,36,0.00,,,0.00,WUHU21623XXSP,2013-02-01 19:19:00,
2013-02-01 14:24:00,30.0,6.1,29.89,WNW,292,3.8,13.4,36,0.00,,,0.00,WUHU21623XXSP,2013-02-01 19:24:00,
2013-02-01 14:30:00,29.7,5.9,29.90,NE,45,3.4,13.9,36,0.00,,,0.00,WUHU21623XXSP,2013-02-01 19:30:00,
2013-02-01 14:35:00,29.3,5.5,29.90,NW,325,4.4,13.9,36,0.00,,,0.00,WUHU21623XXSP,2013-02-01 19:35:00,
2013-02-01 14:40:00,29.1,5.3,29.90,NNW,337,4.5,12.1,36,0.00,,,0.00,WUHU21623XXSP,2013-02-01 19:40:00,
2013-02-01 14:45:00,28.9,5.2,29.91,NNW,335,3.6,8.7,36,0.00,,,0.00,WUHU21623XXSP,2013-02-01 19:45:00,
2013-02-01 14:50:00,29.1,5.3,29.91,NW,324,2.2,8.1,36,0.00,,,0.00,WUHU21623XXSP,2013-02-01 19:50:00,
2013-02-01 14:55:00,29.3,5.5,29.91,West,271,3.5,9.6,36,0.00,,,0.00,WUHU21623XXSP,2013-02-01 19:55:00,
2013-02-01 15:00:00,29.7,5.9,29.91,West,270,6.0,10.7,36,0.00,,,0.00,WUHU21623XXSP,2013-02-01 20:00:00,
2013-02-01 15:05:00,29.8,6.0,29.92,SSW,202,4.5,10.7,36,0.00,,,0.00,WUHU21623XXSP,2013-02-01 20:05:00,
2013-02-01 15:10:00,30.4,6.5,29.92,ENE,67,3.1,10.3,36,0.00,,,0.00,WUHU21623XXSP,2013-02-01 20:10:00,
2013-02-01 15:15:00,30.7,6.8,29.93,WNW,292,4.2,11.0,36,0.00,,,0.00,WUHU21623XXSP,2013-02-01 20:15:00,
2013-02-01 15:20:00,30.4,6.5,29.93,NW,315,3.4,11.0,36,0.00,,,0.00,WUHU21623XXSP,2013-02-01 20:20:00,
2013-02-01 15:25:00,30.0,6.1,29.93,WSW,256,2.7,11.2,36,0.00,,,0.00,WUHU21623XXSP,2013-02-01 20:25:00,
2013-02-01 15:30:00,30.0,6.1,29.93,NNW,327,3.8,11.2,36,0.00,,,0.00,WUHU21623XXSP,2013-02-01 20:30:00,
2013-02-01 15:35:00,29.8,6.0,29.93,NW,326,4.4,7.4,36,0.00,,,0.00,WUHU21623XXSP,2013-02-01 20:35:00,
2013-02-01 15:40:00,29.7,5.9,29.94,WNW,292,5.8,12.1,36,0.00,,,0.00,WUHU21623XXSP,2013-02-01 20:40:00,
2013-02-01 15:45:00,29.7,5.9,29.95,NE,45,5.8,9.8,36,0.00,,,0.00,WUHU21623XXSP,2013-02-01 20:45:00,
2013-02-01 15:50:00,29.8,6.0,29.95,North,0,8.9,8.9,36,0.00,,,0.00,WUHU21623XXSP,2013-02-01 20:50:00,
2013-02-01 15:55:00,30.0,6.1,29.95,West,275,5.0,9.2,36,0.00,,,0.00,WUHU21623XXSP,2013-02-01 20:55:00,
2013-02-01 16:00:00,30.0,6.1,29.95,NW,313,2.8,9.2,36,0.00,,,0.00,WUHU21623XXSP,2013-02-01 21:00:00,
2013-02-01 16:05:00,29.7,5.9,29.95,WSW,247,5.1,11.4,36,0.00,,,0.00,WUHU21623XXSP,2013-02-01 21:05:00,
2013-02-01 16:10:00,29.5,5.7,29.96,WSW,247,5.4,11.4,36,0.00,,,0.00,WUHU21623XXSP,2013-02-01 21:10:00,
2013-02-01 16:15:00,28.9,5.2,29.96,NW,315,4.0,10.3,36,0.00,,,0.00,WUHU21623XXSP,2013-02-01 21:15:00,
2013-02-01 16:20:00,28.8,5.1,29.96,South,175,2.4,10.3,36,0.00,,,0.00,WUHU21623XXSP,2013-02-01 21:20:00,
2013-02-01 16:25:00,28.8,5.1,29.96,NW,304,2.7,10.3,36,0.00,,,0.00,WUHU21623XXSP,2013-02-01 21:25:00,
2013-02-01 16:30:00,28.6,4.9,29.96,NW,315,3.5,10.3,36,0.00,,,0.00,WUHU21623XXSP,2013-02-01 21:30:00,
2013-02-01 16:35:00,28.6,4.9,29.97,WNW,296,5.8,9.6,36,0.00,,,0.00,WUHU21623XXSP,2013-02-01 21:35:00,
2013-02-01 16:40:00,28.0,4.4,29.97,WNW,302,3.5,12.3,36,0.00,,,0.00,WUHU21623XXSP,2013-02-01 21:40:00,
2013-02-01 16:45:00,27.9,4.3,29.97,West,270,4.5,12.3,36,0.00,,,0.00,WUHU21623XXSP,2013-02-01 21:45:00,
2013-02-01 16:50:00,27.5,3.9,29.98,SSW,202,4.0,12.1,36,0.00,,,0.00,WUHU21623XXSP,2013-02-01 21:50:00,
2013-02-01 16:55:00,27.3,3.7,29.98,SW,234,4.1,12.1,36,0.00,,,0.00,WUHU21623XXSP,2013-02-01 21:55:00,
2013-02-01 17:00:00,27.0,3.5,29.98,WNW,294,5.9,17.2,36,0.00,,,0.00,WUHU21623XXSP,2013-02-01 22:00:00,
2013-02-01 17:05:00,26.8,3.3,29.99,NNW,331,5.3,17.2,36,0.00,,,0.00,WUHU21623XXSP,2013-02-01 22:05:00,
2013-02-01 17:10:00,26.4,2.9,30.00,WSW,247,11.4,13.2,36,0.00,,,0.00,WUHU21623XXSP,2013-02-01 22:10:00,
2013-02-01 17:15:00,26.2,2.8,29.99,SE,135,4.0,13.2,36,0.00,,,0.00,WUHU21623XXSP,2013-02-01 22:15:00,
2013-02-01 17:20:00,26.1,2.7,30.00,NNW,337,3.1,7.2,36,0.00,,,0.00,WUHU21623XXSP,2013-02-01 22:20:00,
2013-02-01 17:25:00,25.9,2.5,30.00,NNW,335,1.8,7.2,36,0.00,,,0.00,WUHU21623XXSP,2013-02-01 22:25:00,
2013-02-01 17:30:00,25.9,2.5,30.01,WNW,292,0.3,6.3,36,0.00,,,0.00,WUHU21623XXSP,2013-02-01 22:30:00,
2013-02-01 17:35:00,25.7,2.3,30.02,NE,45,3.6,5.8,36,0.00,,,0.00,WUHU21623XXSP,2013-02-01 22:35:00,
2013-02-01 17:40:00,25.7,2.3,30.02,WNW,292,2.2,5.8,36,0.00,,,0.00,WUHU21623XXSP,2013-02-01 22:40:00,
2013-02-01 17:47:00,25.7,2.3,30.02,SW,225,3.8,8.5,36,0.00,,,0.00,WUHU21623XXSP,2013-02-01 22:47:00,
2013-02-01 17:52:00,25.5,2.1,30.03,West,259,0.6,8.5,36,0.00,,,0.00,WUHU21623XXSP,2013-02-01 22:52:00,
2013-02-01 17:57:00,25.5,2.1,30.05,WNW,285,1.7,7.6,36,0.00,,,0.00,WUHU21623XXSP,2013-02-01 22:57:00,
2013-02-01 18:02:00,25.5,2.1,30.05,NW,315,2.9,11.6,36,0.00,,,0.00,WUHU21623XXSP,2013-02-01 23:02:00,
2013-02-01 18:06:00,25.5,2.1,30.05,North,0,3.4,11.6,36,0.00,,,0.00,WUHU21623XXSP,2013-02-01 23:06:00,
2013-02-01 18:11:00,25.3,1.9,30.05,North,0,2.9,5.1,36,0.00,,,0.00,WUHU21623XXSP,2013-02-01 23:11:00,
2013-02-01 18:17:00,25.3,1.9,30.05,WNW,292,5.8,6.0,36,0.00,,,0.00,WUHU21623XXSP,2013-02-01 23:17:00,
2013-02-01 18:22:00,25.3,1.9,30.05,WNW,292,5.8,6.0,36,0.00,,,0.00,WUHU21623XXSP,2013-02-01 23:22:00,
2013-02-01 18:27:00,25.2,1.9,30.05,NW,315,2.5,5.8,36,0.00,,,0.00,WUHU21623XXSP,2013-02-01 23:27:00,
2013-02-01 18:32:00,25.0,1.7,30.06,NW,315,1.9,5.8,36,0.00,,,0.00,WUHU21623XXSP,2013-02-01 23:32:00,
2013-02-01 18:37:00,25.0,1.7,30.07,NW,318,1.2,3.6,36,0.00,,,0.00,WUHU21623XXSP,2013-02-01 23:37:00,
2013-02-01 18:42:00,25.0,1.7,30.07,ENE,67,1.1,6.9,36,0.00,,,0.00,WUHU21623XXSP,2013-02-01 23:42:00,
2013-02-01 18:47:00,24.6,1.3,30.07,WNW,287,3.7,15.7,36,0.00,,,0.00,WUHU21623XXSP,2013-02-01 23:47:00,
2013-02-01 18:52:00,24.6,1.3,30.07,WSW,250,1.6,15.7,36,0.00,,,0.00,WUHU21623XXSP,2013-02-01 23:52:00,
2013-02-01 18:57:00,24.4,1.1,30.08,WNW,292,5.8,7.6,36,0.00,,,0.00,WUHU21623XXSP,2013-02-01 23:57:00,
2013-02-01 19:02:00,24.4,1.1,30.08,SW,225,4.0,5.8,36,0.00,,,0.00,WUHU21623XXSP,2013-02-02 00:02:00,
2013-02-01 19:07:00,24.4,1.1,30.08,West,278,1.5,4.7,36,0.00,,,0.00,WUHU21623XXSP,2013-02-02 00:07:00,
2013-02-01 19:12:00,24.4,1.1,30.08,West,270,0.0,7.8,36,0.00,,,0.00,WUHU21623XXSP,2013-02-02 00:12:00,
2013-02-01 19:17:00,24.4,1.1,30.08,NW,315,4.3,4.3,36,0.00,,,0.00,WUHU21623XXSP,2013-02-02 00:17:00,
2013-02-01 19:22:00,24.4,1.1,30.09,NW,315,4.3,4.3,36,0.00,,,0.00,WUHU21623XXSP,2013-02-02 00:22:00,
2013-02-01 19:27:00,24.4,1.1,30.09,NW,315,4.3,4.3,36,0.00,,,0.00,WUHU21623XXSP,2013-02-02 00:27:00,
2013-02-01 19:32:00,24.4,1.1,30.09,NW,315,4.3,4.3,36,0.00,,,0.00,WUHU21623XXSP,2013-02-02 00:32:00,
2013-02-01 20:58:00,22.8,-0.3,30.14,NNW,337,0.0,0.0,36,0.00,,,0.00,WUHU21623XXSP,2013-02-02 01:58:00,
2013-02-01 21:03:00,22.8,-0.3,30.13,WNW,291,2.5,2.5,36,0.00,,,0.00,WUHU21623XXSP,2013-02-02 02:03:00,
2013-02-01 21:08:00,22.8,-0.3,30.14,West,270,2.2,2.5,36,0.00,,,0.00,WUHU21623XXSP,2013-02-02 02:08:00,
2013-02-01 21:13:00,22.8,-0.3,30.14,West,270,2.2,2.2,36,0.00,,,0.00,WUHU21623XXSP,2013-02-02 02:13:00,
2013-02-01 21:18:00,22.8,-0.3,30.14,West,270,2.2,2.2,36,0.00,,,0.00,WUHU21623XXSP,2013-02-02 02:18:00,